Time;durP1;ratioP1;P1;durP2;ratioP2;P2;SDS_P1;SDS_P2;PMS_P1;PMS_P2;Temp;Humidity;BMP_temperature;BMP_pressure;BME280_temperature;BME280_humidity;BME280_pressure;Samples;Min_cycle;Max_cycle;Signal;HPM_P1;HPM_P2
2022/06/12 00:01:33;;;;;;;8.48;3.55;;;19.10;99.90;;;;;;5110689;28;20212;-78
2022/06/12 00:04:01;;;;;;;7.07;3.30;;;19.20;99.90;;;;;;5094081;28;20209;-78
2022/06/12 00:06:28;;;;;;;7.75;3.40;;;19.30;99.90;;;;;;5074316;28;20205;-78
2022/06/12 00:08:56;;;;;;;6.82;3.33;;;19.20;99.90;;;;;;5079072;28;20208;-78
2022/06/12 00:11:26;;;;;;;6.50;3.30;;;19.10;99.90;;;;;;5054302;28;20221;-78
2022/06/12 00:14:00;;;;;;;6.70;3.42;;;19.10;99.90;;;;;;5065846;28;20197;-78
2022/06/12 00:16:29;;;;;;;5.10;3.70;;;18.80;99.90;;;;;;5069838;28;20592;-78
2022/06/12 00:18:56;;;;;;;6.93;3.35;;;18.90;99.90;;;;;;5075341;28;20208;-78
2022/06/12 00:21:25;;;;;;;8.20;3.55;;;18.80;99.90;;;;;;5070191;28;20197;-78
2022/06/12 00:23:54;;;;;;;7.32;3.97;;;19.00;99.90;;;;;;5073685;28;20233;-78
2022/06/12 00:26:25;;;;;;;10.70;4.70;;;19.10;99.90;;;;;;5070737;28;20217;-78
2022/06/12 00:28:59;;;;;;;7.55;3.97;;;19.20;99.90;;;;;;5072820;28;20538;-78
2022/06/12 00:31:26;;;;;;;6.05;3.80;;;19.10;99.90;;;;;;5074009;28;20217;-79
2022/06/12 00:33:54;;;;;;;6.88;3.90;;;18.90;99.90;;;;;;5073561;28;20197;-79
2022/06/12 00:36:22;;;;;;;5.75;3.65;;;18.70;99.90;;;;;;5085213;28;20213;-79
2022/06/12 00:38:49;;;;;;;6.82;4.13;;;18.60;99.90;;;;;;5074921;28;20193;-79
2022/06/12 00:41:22;;;;;;;8.65;4.28;;;18.90;99.90;;;;;;5063649;28;20198;-80
2022/06/12 00:43:50;;;;;;;7.40;4.55;;;19.00;99.90;;;;;;5080944;28;20214;-79
2022/06/12 00:46:40;;;;;;;9.32;4.68;;;18.80;99.90;;;;;;5071046;28;20209;-79
2022/06/12 00:49:10;;;;;;;6.45;3.75;;;18.80;99.90;;;;;;5061483;28;20206;-79
2022/06/12 00:51:38;;;;;;;6.95;4.32;;;19.00;99.90;;;;;;5068455;28;20186;-79
2022/06/12 00:54:09;;;;;;;9.75;4.45;;;18.40;99.90;;;;;;5073015;28;20189;-79
2022/06/12 00:56:42;;;;;;;7.10;4.00;;;18.30;99.90;;;;;;5073925;28;20576;-79
2022/06/12 00:59:14;;;;;;;6.53;4.20;;;18.20;99.90;;;;;;5073237;28;20220;-79
2022/06/12 01:01:45;;;;;;;11.57;5.75;;;18.20;99.90;;;;;;5065610;28;20197;-79
2022/06/12 01:07:03;;;;;;;9.23;4.38;;;18.50;99.90;;;;;;5071944;28;20213;-79
2022/06/12 01:09:54;;;;;;;9.00;4.82;;;18.60;99.90;;;;;;5065980;28;20190;-79
2022/06/12 01:12:28;;;;;;;9.05;4.55;;;18.40;99.90;;;;;;5060979;28;20671;-79
2022/06/12 01:15:02;;;;;;;9.82;4.85;;;18.60;99.90;;;;;;5072601;28;20697;-79
2022/06/12 01:17:33;;;;;;;8.82;4.50;;;18.50;99.90;;;;;;5064101;28;20217;-79
2022/06/12 01:20:04;;;;;;;6.10;4.45;;;18.60;99.90;;;;;;5072815;28;20200;-79
2022/06/12 01:22:58;;;;;;;7.75;4.57;;;18.60;99.90;;;;;;5084537;28;20236;-79
2022/06/12 01:26:14;;;;;;;8.05;4.43;;;18.50;99.90;;;;;;5069863;28;20217;-79
2022/06/12 01:28:51;;;;;;;9.30;4.85;;;18.40;99.90;;;;;;5035634;28;20201;-79
2022/06/12 01:31:40;;;;;;;9.07;4.50;;;18.40;99.90;;;;;;5072476;28;20189;-79
2022/06/12 01:34:24;;;;;;;8.90;4.53;;;18.50;99.90;;;;;;5068755;28;20205;-79
2022/06/12 01:36:59;;;;;;;6.35;4.43;;;18.30;99.90;;;;;;5071802;28;20221;-79
2022/06/12 01:39:40;;;;;;;8.50;4.82;;;18.30;99.90;;;;;;5069399;28;20541;-79
2022/06/12 01:42:20;;;;;;;7.72;4.00;;;18.00;99.90;;;;;;5070151;28;20208;-79
2022/06/12 01:45:08;;;;;;;9.75;4.35;;;18.20;99.90;;;;;;5066129;28;20676;-79
2022/06/12 01:47:45;;;;;;;6.93;4.60;;;18.30;99.90;;;;;;5068115;28;20742;-79
2022/06/12 01:50:19;;;;;;;7.93;4.57;;;17.90;99.90;;;;;;5071097;28;20201;-79
2022/06/12 01:52:57;;;;;;;6.60;4.18;;;18.00;99.90;;;;;;5065874;28;20212;-79
2022/06/12 01:55:32;;;;;;;8.02;4.50;;;17.80;99.90;;;;;;5073522;28;20206;-79
2022/06/12 01:58:06;;;;;;;6.38;4.25;;;17.90;99.90;;;;;;5071972;28;20236;-79
2022/06/12 02:00:36;;;;;;;7.72;4.47;;;17.90;99.90;;;;;;5055061;28;20201;-79
2022/06/12 02:03:12;;;;;;;7.18;4.45;;;17.80;99.90;;;;;;5072887;28;20567;-79
2022/06/12 02:05:46;;;;;;;10.27;4.65;;;17.80;99.90;;;;;;5068098;28;20703;-79
2022/06/12 02:08:18;;;;;;;6.47;4.32;;;17.90;99.90;;;;;;5066046;28;20218;-79
2022/06/12 02:10:49;;;;;;;7.35;4.07;;;17.90;99.90;;;;;;5062066;28;20653;-79
2022/06/12 02:13:22;;;;;;;10.27;4.93;;;17.80;99.90;;;;;;5070129;28;20675;-79
2022/06/12 02:15:55;;;;;;;7.43;4.32;;;17.70;99.90;;;;;;5067906;28;20190;-79
2022/06/12 02:18:29;;;;;;;6.63;4.57;;;17.70;99.90;;;;;;5070878;28;20240;-79
2022/06/12 02:21:02;;;;;;;8.10;5.05;;;17.70;99.90;;;;;;5063319;28;20183;-79
2022/06/12 02:23:35;;;;;;;5.72;4.57;;;17.60;99.90;;;;;;5064316;28;20193;-79
2022/06/12 02:26:05;;;;;;;7.10;4.22;;;17.50;99.90;;;;;;5065192;28;20212;-79
2022/06/12 02:28:40;;;;;;;6.18;4.07;;;17.40;99.90;;;;;;5070427;28;20209;-79
2022/06/12 02:31:15;;;;;;;9.95;4.55;;;17.60;99.90;;;;;;5062668;28;20190;-79
2022/06/12 02:33:46;;;;;;;9.43;4.15;;;17.70;99.90;;;;;;5067428;28;20189;-79
2022/06/12 02:36:19;;;;;;;9.02;4.60;;;17.60;99.90;;;;;;5069621;28;20201;-79
2022/06/12 02:38:51;;;;;;;8.38;4.47;;;17.40;99.90;;;;;;5065290;28;20186;-79
2022/06/12 02:41:24;;;;;;;10.57;4.70;;;17.20;99.90;;;;;;5082384;28;20655;-79
2022/06/12 02:43:57;;;;;;;6.68;4.70;;;17.20;99.90;;;;;;5067133;28;20205;-79
2022/06/12 02:46:33;;;;;;;8.45;4.22;;;16.80;99.90;;;;;;5068270;28;20224;-79
2022/06/12 02:49:00;;;;;;;7.85;4.28;;;17.00;99.90;;;;;;5068998;28;20201;-79
2022/06/12 02:51:35;;;;;;;7.30;4.00;;;17.20;99.90;;;;;;5063207;28;20205;-79
2022/06/12 02:54:12;;;;;;;9.52;4.90;;;17.20;99.90;;;;;;5088702;28;20204;-78
2022/06/12 02:56:46;;;;;;;6.95;4.70;;;16.80;99.90;;;;;;5095079;28;20228;-79
2022/06/12 02:59:27;;;;;;;8.15;4.45;;;16.50;99.90;;;;;;5065901;28;20683;-79
2022/06/12 03:02:11;;;;;;;8.93;4.40;;;16.40;99.90;;;;;;5069202;28;20202;-79
2022/06/12 03:04:53;;;;;;;9.05;4.65;;;16.40;99.90;;;;;;5066438;28;20695;-79
2022/06/12 03:07:21;;;;;;;7.88;4.65;;;16.50;99.90;;;;;;5070687;28;20213;-79
2022/06/12 03:09:48;;;;;;;8.05;4.43;;;16.30;99.90;;;;;;5071773;28;20682;-79
2022/06/12 03:12:16;;;;;;;8.68;4.93;;;16.20;99.90;;;;;;5062079;28;20209;-79
2022/06/12 03:14:44;;;;;;;11.80;5.32;;;16.40;99.90;;;;;;5071367;28;20233;-79
2022/06/12 03:17:13;;;;;;;8.75;4.78;;;16.40;99.90;;;;;;5085499;28;20228;-79
2022/06/12 03:19:46;;;;;;;8.77;4.68;;;16.60;99.90;;;;;;5062966;28;20650;-79
2022/06/12 03:22:22;;;;;;;6.65;4.70;;;16.50;99.90;;;;;;5072878;28;20202;-79
2022/06/12 03:24:58;;;;;;;6.78;4.78;;;16.40;99.90;;;;;;5067873;28;20210;-79
2022/06/12 03:27:38;;;;;;;8.82;5.07;;;16.30;99.90;;;;;;5071724;28;20212;-79
2022/06/12 03:30:14;;;;;;;9.02;5.10;;;16.40;99.90;;;;;;5074535;28;20212;-79
2022/06/12 03:32:52;;;;;;;7.90;4.90;;;16.40;99.90;;;;;;5058723;28;20190;-79
2022/06/12 03:35:32;;;;;;;8.02;4.80;;;16.20;99.90;;;;;;5061440;28;20194;-79
2022/06/12 03:38:02;;;;;;;7.78;4.55;;;15.90;99.90;;;;;;5073385;28;20581;-79
2022/06/12 03:40:38;;;;;;;8.38;5.47;;;16.50;99.90;;;;;;5063529;28;21129;-79
2022/06/12 03:43:12;;;;;;;11.10;5.05;;;16.80;99.90;;;;;;5066668;28;20690;-79
2022/06/12 03:45:47;;;;;;;9.73;5.82;;;16.90;99.90;;;;;;5066366;28;20210;-79
2022/06/12 03:48:27;;;;;;;7.82;4.85;;;16.40;99.90;;;;;;5061668;28;20217;-80
2022/06/12 03:51:04;;;;;;;6.97;4.45;;;16.40;99.90;;;;;;5058988;28;20198;-79
2022/06/12 03:53:42;;;;;;;6.80;4.47;;;16.40;99.90;;;;;;5066017;28;20202;-79
2022/06/12 03:59:02;;;;;;;8.43;3.83;;;16.50;99.90;;;;;;5075273;28;20205;-79
2022/06/12 04:01:32;;;;;;;8.77;5.13;;;17.00;99.90;;;;;;5067024;28;20193;-79
2022/06/12 04:04:02;;;;;;;9.93;4.60;;;16.80;99.90;;;;;;5069322;28;20198;-79
2022/06/12 04:06:43;;;;;;;6.07;3.70;;;16.50;99.90;;;;;;5081854;28;20221;-79
2022/06/12 04:09:17;;;;;;;7.38;4.13;;;16.50;99.90;;;;;;5069156;28;20194;-79
2022/06/12 04:11:52;;;;;;;11.10;4.78;;;16.50;99.90;;;;;;5070452;28;20206;-79
2022/06/12 04:14:22;;;;;;;6.28;4.20;;;16.40;99.90;;;;;;5061878;28;20193;-79
2022/06/12 04:16:55;;;;;;;6.97;4.10;;;16.40;99.90;;;;;;5063769;28;20206;-79
2022/06/12 04:23:39;;;;;;;9.30;4.53;;;16.30;99.90;;;;;;5080303;28;20178;-79
2022/06/12 04:26:13;;;;;;;9.40;4.10;;;16.60;99.90;;;;;;5072193;28;20212;-78
2022/06/12 04:28:44;;;;;;;9.98;4.78;;;16.50;99.90;;;;;;5062351;28;20203;-79
2022/06/12 04:31:19;;;;;;;8.18;4.07;;;16.80;99.90;;;;;;5073068;28;20204;-79
2022/06/12 04:34:05;;;;;;;6.70;3.83;;;17.20;99.90;;;;;;5072670;28;20201;-79
2022/06/12 04:36:32;;;;;;;7.70;4.53;;;17.30;99.90;;;;;;5060612;28;20687;-79
2022/06/12 04:39:33;;;;;;;8.90;4.05;;;17.10;99.90;;;;;;5069717;28;20204;-79
2022/06/12 04:42:02;;;;;;;9.27;4.47;;;17.00;99.90;;;;;;5066325;28;20214;-79
2022/06/12 04:44:31;;;;;;;7.80;4.05;;;17.20;99.90;;;;;;5066139;28;20679;-79
2022/06/12 04:47:01;;;;;;;10.43;4.43;;;17.50;99.90;;;;;;5085434;28;20703;-79
2022/06/12 04:49:32;;;;;;;6.35;4.38;;;17.50;99.90;;;;;;5067363;28;20257;-79
2022/06/12 04:52:01;;;;;;;8.25;4.25;;;17.60;99.90;;;;;;5072354;28;20536;-79
2022/06/12 04:54:32;;;;;;;7.28;4.10;;;17.50;99.90;;;;;;5078643;28;20201;-79
2022/06/12 04:57:01;;;;;;;6.63;4.43;;;17.50;99.90;;;;;;5066716;28;20214;-79
2022/06/12 04:59:57;;;;;;;5.57;4.10;;;17.50;99.90;;;;;;5066360;28;20195;-79
2022/06/12 05:02:25;;;;;;;8.07;4.50;;;18.10;99.90;;;;;;5072566;28;20217;-79
2022/06/12 05:04:53;;;;;;;5.68;3.45;;;18.60;99.90;;;;;;5084153;28;20212;-79
2022/06/12 05:07:20;;;;;;;10.30;4.55;;;18.60;99.90;;;;;;5067940;28;20582;-79
2022/06/12 05:12:59;;;;;;;11.18;4.60;;;18.50;99.90;;;;;;5070798;28;20201;-79
2022/06/12 05:15:26;;;;;;;7.65;4.07;;;18.40;99.90;;;;;;5066920;28;20198;-80
2022/06/12 05:17:54;;;;;;;6.07;3.70;;;18.20;99.90;;;;;;5062417;28;20226;-78
2022/06/12 05:20:24;;;;;;;7.15;3.72;;;18.10;99.90;;;;;;5069788;28;20197;-78
2022/06/12 05:22:53;;;;;;;7.45;3.95;;;18.10;99.90;;;;;;5063792;28;20214;-78
2022/06/12 05:25:21;;;;;;;7.38;3.55;;;18.20;99.90;;;;;;5066132;28;20213;-79
2022/06/12 05:27:49;;;;;;;7.93;3.75;;;18.40;99.90;;;;;;5068711;28;20236;-78
2022/06/12 05:30:26;;;;;;;7.38;3.60;;;18.20;99.90;;;;;;5082622;28;20647;-79
2022/06/12 05:32:59;;;;;;;5.60;2.45;;;18.40;99.90;;;;;;5063661;28;20197;-79
2022/06/12 05:35:28;;;;;;;7.18;3.05;;;18.70;99.90;;;;;;5063278;28;20194;-77
2022/06/12 05:37:56;;;;;;;4.40;2.28;;;19.10;99.90;;;;;;5065371;28;20705;-77
2022/06/12 05:40:28;;;;;;;6.28;2.30;;;19.20;98.60;;;;;;5067620;28;20648;-77
2022/06/12 05:42:56;;;;;;;4.80;2.00;;;19.00;97.40;;;;;;5065815;28;20208;-77
2022/06/12 05:45:28;;;;;;;6.13;2.22;;;19.40;97.90;;;;;;5084075;28;20217;-78
2022/06/12 05:47:59;;;;;;;5.25;2.38;;;19.40;96.90;;;;;;5064711;28;20229;-78
2022/06/12 05:50:36;;;;;;;6.85;2.50;;;19.50;97.40;;;;;;5059636;28;20216;-78
2022/06/12 05:53:23;;;;;;;3.88;1.77;;;19.50;96.10;;;;;;5081780;28;20205;-78
2022/06/12 05:55:59;;;;;;;5.00;2.00;;;19.60;95.60;;;;;;5069904;28;20197;-78
2022/06/12 05:58:32;;;;;;;5.20;2.13;;;19.70;95.70;;;;;;5059804;28;20222;-78
2022/06/12 06:01:02;;;;;;;5.53;1.90;;;19.40;95.60;;;;;;5060115;28;20205;-77
2022/06/12 06:03:29;;;;;;;6.47;1.75;;;19.60;96.00;;;;;;5063286;28;20675;-77
2022/06/12 06:05:57;;;;;;;4.88;2.30;;;19.70;95.30;;;;;;5062493;28;20220;-78
2022/06/12 06:08:25;;;;;;;6.05;1.90;;;19.90;95.40;;;;;;5064336;28;20770;-77
2022/06/12 06:10:52;;;;;;;8.43;2.70;;;19.90;94.50;;;;;;5057886;28;20206;-76
2022/06/12 06:13:20;;;;;;;7.18;2.08;;;19.80;94.30;;;;;;5066287;28;20201;-78
2022/06/12 06:15:50;;;;;;;5.30;2.08;;;19.70;94.90;;;;;;5061987;28;20703;-77
2022/06/12 06:18:20;;;;;;;8.50;2.65;;;19.60;94.80;;;;;;5081207;28;20225;-76
2022/06/12 06:20:48;;;;;;;8.02;3.00;;;19.30;95.20;;;;;;5067633;28;20213;-78
2022/06/12 06:23:16;;;;;;;6.10;2.22;;;19.10;95.70;;;;;;5068349;28;20214;-77
2022/06/12 06:25:44;;;;;;;6.05;2.40;;;19.20;96.00;;;;;;5056135;28;20205;-77
2022/06/12 06:28:14;;;;;;;7.25;2.55;;;19.00;95.70;;;;;;5060265;28;20229;-77
2022/06/12 06:30:42;;;;;;;5.88;2.20;;;19.00;96.10;;;;;;5065760;28;20194;-77
2022/06/12 06:33:11;;;;;;;6.45;2.40;;;18.90;96.80;;;;;;5077732;28;20698;-77
2022/06/12 06:35:40;;;;;;;10.90;2.95;;;19.10;96.70;;;;;;5077066;28;20217;-77
2022/06/12 06:38:08;;;;;;;5.20;2.65;;;19.20;96.70;;;;;;5096896;28;20304;-77
2022/06/12 06:40:36;;;;;;;8.27;2.72;;;19.20;96.40;;;;;;5067202;28;20197;-77
2022/06/12 06:43:04;;;;;;;9.48;3.17;;;19.20;97.70;;;;;;5062838;28;20197;-77
2022/06/12 06:48:16;;;;;;;6.40;2.83;;;19.30;96.00;;;;;;5071244;28;20221;-77
2022/06/12 06:50:52;;;;;;;9.55;3.30;;;19.40;96.10;;;;;;5063941;28;20557;-77
2022/06/12 06:53:20;;;;;;;8.35;3.10;;;19.40;96.20;;;;;;5066171;28;20193;-77
2022/06/12 06:55:48;;;;;;;4.55;2.80;;;19.30;95.60;;;;;;5064519;28;20683;-77
2022/06/12 06:58:19;;;;;;;5.53;2.85;;;19.40;95.90;;;;;;5062680;28;20221;-77
2022/06/12 07:00:48;;;;;;;9.63;2.75;;;19.40;96.40;;;;;;5055544;28;20187;-77
2022/06/12 07:03:15;;;;;;;5.70;2.65;;;19.60;96.80;;;;;;5083948;28;20195;-77
2022/06/12 07:05:45;;;;;;;6.70;3.00;;;19.70;96.80;;;;;;5078635;28;20220;-77
2022/06/12 07:08:15;;;;;;;5.57;2.50;;;19.30;96.10;;;;;;5068876;28;20213;-77
2022/06/12 07:10:43;;;;;;;5.18;2.40;;;19.40;97.30;;;;;;5061144;28;20198;-77
2022/06/12 07:13:12;;;;;;;5.90;2.78;;;19.30;97.30;;;;;;5062528;28;20224;-77
2022/06/12 07:15:40;;;;;;;6.82;2.85;;;19.60;96.40;;;;;;5067783;28;20198;-77
2022/06/12 07:18:10;;;;;;;4.60;2.33;;;19.80;95.80;;;;;;5061979;28;20221;-77
2022/06/12 07:20:40;;;;;;;7.05;2.47;;;19.80;95.40;;;;;;5063972;28;20202;-77
2022/06/12 07:23:08;;;;;;;7.63;2.55;;;19.70;95.40;;;;;;5070414;28;20201;-77
2022/06/12 07:25:43;;;;;;;6.80;2.50;;;19.80;95.50;;;;;;5056002;28;20190;-77
2022/06/12 07:28:11;;;;;;;7.05;2.58;;;19.90;95.60;;;;;;5064071;28;20221;-77
2022/06/12 07:30:39;;;;;;;4.95;2.42;;;19.70;95.30;;;;;;5073281;28;20193;-77
2022/06/12 07:33:13;;;;;;;4.68;1.83;;;19.70;95.30;;;;;;5081718;28;20198;-77
2022/06/12 07:35:43;;;;;;;5.95;2.33;;;19.90;95.70;;;;;;5072861;28;20186;-77
2022/06/12 07:38:12;;;;;;;6.93;2.40;;;20.00;95.30;;;;;;5074821;28;20210;-77
2022/06/12 07:40:49;;;;;;;5.78;2.50;;;19.90;95.40;;;;;;5072560;28;20216;-77
2022/06/12 07:43:17;;;;;;;9.05;3.40;;;20.00;94.90;;;;;;5066773;28;20205;-77
2022/06/12 07:45:46;;;;;;;7.78;2.80;;;20.10;95.80;;;;;;5068973;28;20208;-77
2022/06/12 07:48:14;;;;;;;6.38;2.22;;;20.10;95.60;;;;;;5087713;28;20220;-77
2022/06/12 07:50:43;;;;;;;8.57;3.30;;;20.00;95.50;;;;;;5066209;28;20201;-77
2022/06/12 07:53:11;;;;;;;7.72;3.45;;;20.00;95.80;;;;;;5091919;28;20212;-77
2022/06/12 07:55:39;;;;;;;8.63;3.00;;;19.90;95.90;;;;;;5074046;28;20687;-77
2022/06/12 07:58:15;;;;;;;11.23;3.55;;;20.00;96.10;;;;;;5073755;28;20217;-77
2022/06/12 08:00:44;;;;;;;9.85;3.50;;;19.80;95.80;;;;;;5069641;28;20190;-77
2022/06/12 08:03:12;;;;;;;8.43;2.90;;;19.70;96.00;;;;;;5090185;28;20201;-77
2022/06/12 08:05:39;;;;;;;5.15;2.28;;;19.70;95.90;;;;;;5073526;28;20209;-77
2022/06/12 08:08:07;;;;;;;7.95;3.10;;;19.80;96.00;;;;;;5062836;28;20243;-77
2022/06/12 08:10:35;;;;;;;6.82;2.85;;;19.70;96.00;;;;;;5067527;28;20202;-77
2022/06/12 08:13:04;;;;;;;8.57;2.67;;;20.10;96.20;;;;;;5073764;28;20198;-77
2022/06/12 08:15:33;;;;;;;7.30;3.20;;;20.10;95.00;;;;;;5071684;28;20199;-77
2022/06/12 08:18:01;;;;;;;6.53;2.70;;;20.10;95.50;;;;;;5074962;28;20224;-77
2022/06/12 08:20:34;;;;;;;8.02;2.97;;;20.20;95.10;;;;;;5069363;28;20564;-77
2022/06/12 08:23:26;;;;;;;7.32;2.72;;;20.30;94.60;;;;;;5065081;28;20194;-77
2022/06/12 08:25:55;;;;;;;7.10;3.00;;;20.10;94.60;;;;;;5073408;28;20537;-77
2022/06/12 08:28:23;;;;;;;12.30;3.55;;;20.10;95.30;;;;;;5074399;28;20221;-78
2022/06/12 08:30:55;;;;;;;7.82;2.88;;;20.30;94.70;;;;;;5064469;28;20220;-80
2022/06/12 08:33:23;;;;;;;9.73;3.45;;;20.40;94.70;;;;;;5067826;28;20558;-77
2022/06/12 08:35:52;;;;;;;7.25;3.25;;;20.40;94.30;;;;;;5081243;28;20687;-77
2022/06/12 08:38:20;;;;;;;6.47;3.25;;;20.40;94.80;;;;;;5067849;28;20209;-77
2022/06/12 08:40:54;;;;;;;6.90;2.60;;;20.40;95.00;;;;;;5064429;28;20197;-77
2022/06/12 08:43:28;;;;;;;5.13;2.50;;;20.50;95.10;;;;;;5062420;28;20197;-78
2022/06/12 08:46:02;;;;;;;6.28;2.50;;;20.70;94.60;;;;;;5070040;28;20208;-78
2022/06/12 08:48:35;;;;;;;6.47;2.35;;;20.60;92.80;;;;;;5070624;28;20253;-78
2022/06/12 08:51:10;;;;;;;4.57;2.10;;;20.50;93.30;;;;;;5069014;28;20213;-77
2022/06/12 08:53:46;;;;;;;5.80;2.25;;;20.40;92.80;;;;;;5073998;28;20204;-77
2022/06/12 08:56:47;;;;;;;6.00;2.03;;;20.70;92.90;;;;;;5075434;28;20217;-78
2022/06/12 08:59:22;;;;;;;7.07;1.60;;;20.60;90.50;;;;;;5058878;28;20194;-78
2022/06/12 09:01:52;;;;;;;2.10;1.15;;;20.80;87.80;;;;;;5072894;28;20205;-78
2022/06/12 09:04:23;;;;;;;4.70;1.55;;;20.80;76.70;;;;;;5074039;28;20194;-79
2022/06/12 09:07:02;;;;;;;3.40;1.40;;;20.70;76.40;;;;;;5075922;28;20229;-79
2022/06/12 09:09:38;;;;;;;2.97;1.70;;;20.80;78.40;;;;;;5070281;28;20204;-79
2022/06/12 09:12:26;;;;;;;4.70;1.67;;;20.80;79.20;;;;;;5070422;28;20196;-80
2022/06/12 09:15:06;;;;;;;4.50;1.52;;;21.00;80.40;;;;;;5074696;28;20526;-78
2022/06/12 09:17:57;;;;;;;4.57;2.20;;;20.60;77.50;;;;;;5070183;28;20221;-78
2022/06/12 09:20:34;;;;;;;10.73;6.80;;;20.60;79.90;;;;;;5066939;28;20206;-79
2022/06/12 09:23:11;;;;;;;6.35;3.20;;;21.10;87.30;;;;;;5068518;28;20220;-79
2022/06/12 09:25:47;;;;;;;27.90;17.08;;;20.90;83.00;;;;;;5067496;28;20198;-78
2022/06/12 09:28:24;;;;;;;10.30;5.82;;;21.10;83.00;;;;;;5054008;28;20229;-78
2022/06/12 09:30:59;;;;;;;3.10;1.40;;;21.20;83.50;;;;;;5066326;28;20210;-79
2022/06/12 09:33:36;;;;;;;4.75;1.50;;;21.30;81.00;;;;;;5065123;28;20201;-78
2022/06/12 09:36:23;;;;;;;2.30;1.10;;;21.00;76.00;;;;;;5075260;28;20217;-78
2022/06/12 09:39:03;;;;;;;4.70;1.77;;;21.00;75.20;;;;;;5060460;28;20186;-78
2022/06/12 09:41:44;;;;;;;2.47;1.30;;;21.00;71.30;;;;;;5066869;28;20193;-78
2022/06/12 09:44:16;;;;;;;3.10;1.38;;;21.00;69.40;;;;;;5073636;28;20197;-78
2022/06/12 09:46:58;;;;;;;3.70;1.45;;;21.10;69.10;;;;;;5058398;28;20218;-77
2022/06/12 09:49:47;;;;;;;3.08;1.10;;;21.00;68.50;;;;;;5059564;28;20224;-77
2022/06/12 09:52:29;;;;;;;3.65;1.10;;;21.00;67.30;;;;;;5055505;28;20190;-77
2022/06/12 09:55:02;;;;;;;5.20;1.50;;;21.00;65.80;;;;;;5088116;28;20201;-78
2022/06/12 09:57:40;;;;;;;3.75;1.20;;;21.00;65.20;;;;;;5064812;28;20565;-78
2022/06/12 10:00:12;;;;;;;4.18;1.30;;;21.10;64.00;;;;;;5060342;28;20209;-77
2022/06/12 10:02:49;;;;;;;3.75;1.30;;;21.20;64.00;;;;;;5070752;28;20205;-79
2022/06/12 10:05:25;;;;;;;3.35;1.30;;;21.30;65.70;;;;;;5072675;28;20197;-78
2022/06/12 10:07:58;;;;;;;5.07;1.67;;;21.40;66.40;;;;;;5068147;28;20575;-78
2022/06/12 10:10:31;;;;;;;5.70;1.70;;;21.50;68.90;;;;;;5060783;28;20193;-78
2022/06/12 10:13:09;;;;;;;2.60;1.10;;;21.40;67.30;;;;;;5068752;28;20201;-78
2022/06/12 10:15:40;;;;;;;2.65;1.38;;;21.20;69.90;;;;;;5061064;28;20282;-78
2022/06/12 10:18:13;;;;;;;3.63;1.50;;;21.50;70.20;;;;;;5061870;28;20210;-79
2022/06/12 10:20:46;;;;;;;3.60;1.58;;;21.80;70.10;;;;;;5064186;28;20718;-78
2022/06/12 10:23:14;;;;;;;4.15;1.10;;;21.90;67.90;;;;;;5063081;28;20201;-79
2022/06/12 10:25:49;;;;;;;5.03;1.60;;;21.70;65.30;;;;;;5079301;28;20189;-78
2022/06/12 10:28:25;;;;;;;3.50;1.85;;;21.50;66.60;;;;;;5069988;28;20220;-78
2022/06/12 10:31:06;;;;;;;6.22;1.67;;;21.80;69.80;;;;;;5061905;28;20200;-79
2022/06/12 10:33:46;;;;;;;6.00;2.10;;;22.00;68.60;;;;;;5043581;28;20197;-77
2022/06/12 10:36:25;;;;;;;3.80;1.67;;;22.10;70.40;;;;;;5079263;28;20196;-78
2022/06/12 10:39:11;;;;;;;4.00;1.80;;;21.90;67.10;;;;;;5066438;28;20201;-78
2022/06/12 10:45:56;;;;;;;5.32;1.95;;;22.20;66.50;;;;;;5072602;28;20183;-77
2022/06/12 10:48:43;;;;;;;4.35;1.92;;;22.00;66.10;;;;;;5060290;28;20222;-77
2022/06/12 10:51:25;;;;;;;5.18;1.50;;;21.60;64.80;;;;;;5068046;28;20364;-79
2022/06/12 10:53:58;;;;;;;3.80;1.55;;;21.90;65.60;;;;;;5068126;28;20208;-80
2022/06/12 10:56:41;;;;;;;4.25;1.55;;;22.10;64.70;;;;;;5059233;28;20197;-79
2022/06/12 11:02:59;;;;;;;3.22;1.33;;;22.50;66.30;;;;;;5075273;28;20200;-78
2022/06/12 11:05:39;;;;;;;4.53;1.55;;;22.50;62.70;;;;;;5067341;28;20201;-79
2022/06/12 11:08:38;;;;;;;3.08;1.40;;;22.40;61.10;;;;;;5077022;28;20224;-79
2022/06/12 11:11:16;;;;;;;4.68;2.35;;;22.50;61.70;;;;;;5086805;28;20202;-79
2022/06/12 11:14:03;;;;;;;5.40;1.98;;;22.70;65.20;;;;;;5075019;28;20197;-79
2022/06/12 11:16:49;;;;;;;6.80;1.98;;;23.00;67.50;;;;;;5068790;28;20220;-79
2022/06/12 11:19:27;;;;;;;5.05;2.05;;;23.00;67.40;;;;;;5078992;28;20205;-81
2022/06/12 11:22:10;;;;;;;4.60;2.00;;;23.10;65.40;;;;;;5073038;28;20197;-81
2022/06/12 11:24:50;;;;;;;7.05;2.00;;;23.40;66.00;;;;;;5073458;28;20197;-81
2022/06/12 11:27:34;;;;;;;4.53;1.67;;;23.00;61.30;;;;;;5070484;28;20224;-81
2022/06/12 11:30:10;;;;;;;4.90;2.20;;;23.30;64.50;;;;;;5072109;28;20216;-80
2022/06/12 11:32:49;;;;;;;6.20;2.33;;;23.30;64.50;;;;;;5063662;28;20687;-79
2022/06/12 11:35:33;;;;;;;6.53;2.70;;;23.20;64.00;;;;;;5062033;28;20205;-80
2022/06/12 11:38:15;;;;;;;6.30;2.75;;;23.40;64.10;;;;;;5069829;28;20680;-80
2022/06/12 11:40:51;;;;;;;7.43;2.80;;;23.30;65.20;;;;;;5077768;28;20566;-82
2022/06/12 11:43:26;;;;;;;7.80;2.85;;;23.20;67.90;;;;;;5076413;28;20197;-80
2022/06/12 11:46:10;;;;;;;5.45;2.30;;;23.50;68.40;;;;;;5073967;28;20196;-80
2022/06/12 11:49:03;;;;;;;7.32;2.83;;;23.70;65.10;;;;;;5062815;28;20217;-79
2022/06/12 11:51:38;;;;;;;8.43;3.35;;;23.60;66.40;;;;;;5079832;28;20198;-80
2022/06/12 11:54:27;;;;;;;6.10;3.00;;;23.70;68.20;;;;;;5071066;28;20194;-80
2022/06/12 11:57:08;;;;;;;8.13;3.20;;;23.20;67.50;;;;;;5072790;28;20229;-80
2022/06/12 11:59:53;;;;;;;6.78;3.35;;;23.30;69.00;;;;;;5061876;28;20204;-80
2022/06/12 12:02:34;;;;;;;8.00;3.13;;;23.30;68.70;;;;;;5073740;28;20189;-80
2022/06/12 12:05:24;;;;;;;7.63;3.95;;;23.20;69.10;;;;;;5068306;28;20198;-79
2022/06/12 12:08:04;;;;;;;6.88;3.42;;;23.10;68.20;;;;;;5067727;28;20220;-79
2022/06/12 12:10:48;;;;;;;6.22;3.42;;;23.40;68.50;;;;;;5086406;28;20218;-79
2022/06/12 12:13:21;;;;;;;4.88;3.20;;;23.40;66.20;;;;;;5077087;28;20224;-80
2022/06/12 12:15:52;;;;;;;6.68;3.22;;;23.80;65.90;;;;;;5071227;28;20194;-80
2022/06/12 12:18:30;;;;;;;6.40;2.72;;;23.80;66.40;;;;;;5087567;28;20225;-79
2022/06/12 12:21:00;;;;;;;5.68;3.13;;;23.60;67.10;;;;;;5072481;28;20221;-80
2022/06/12 12:23:30;;;;;;;6.32;2.55;;;23.70;68.20;;;;;;5073446;28;20197;-79
2022/06/12 12:26:03;;;;;;;7.85;2.80;;;23.30;70.00;;;;;;5066094;28;20201;-80
2022/06/12 12:28:38;;;;;;;7.85;3.22;;;22.90;71.40;;;;;;5074625;28;20209;-80
2022/06/12 12:31:12;;;;;;;8.23;3.00;;;23.30;72.10;;;;;;5074743;28;20203;-79
2022/06/12 12:33:41;;;;;;;9.68;3.20;;;23.60;70.90;;;;;;5054877;28;20575;-79
2022/06/12 12:41:45;;;;;;;5.72;2.70;;;22.90;72.10;;;;;;5065601;28;20679;-79
2022/06/12 12:44:28;;;;;;;7.13;2.80;;;22.80;73.10;;;;;;5073469;28;20196;-78
2022/06/12 12:47:16;;;;;;;5.43;2.80;;;23.00;72.90;;;;;;5064161;28;20237;-79
2022/06/12 12:49:43;;;;;;;4.40;2.58;;;22.90;73.30;;;;;;5059166;28;20209;-78
2022/06/12 12:52:14;;;;;;;7.15;2.90;;;22.90;70.90;;;;;;5079527;28;20203;-78
2022/06/12 12:54:51;;;;;;;4.88;2.78;;;22.80;71.20;;;;;;5067109;28;20194;-79
2022/06/12 12:57:24;;;;;;;5.15;2.55;;;22.60;71.70;;;;;;5074921;28;20228;-79
2022/06/12 12:59:54;;;;;;;5.10;2.80;;;22.80;70.40;;;;;;5072286;28;20181;-78
2022/06/12 13:02:31;;;;;;;5.40;2.58;;;22.90;69.60;;;;;;5057625;28;20203;-79
2022/06/12 13:05:01;;;;;;;5.43;2.50;;;22.80;69.80;;;;;;5073641;28;20189;-78
2022/06/12 13:07:53;;;;;;;6.65;2.85;;;22.70;71.00;;;;;;5070728;28;20248;-78
2022/06/12 13:10:37;;;;;;;5.22;2.53;;;23.00;70.20;;;;;;5068760;28;20214;-79
2022/06/12 13:13:32;;;;;;;6.32;2.53;;;23.40;68.90;;;;;;5065435;28;20201;-79
2022/06/12 13:16:08;;;;;;;6.32;2.67;;;23.90;69.50;;;;;;5069247;28;20559;-79
2022/06/12 13:18:54;;;;;;;5.65;2.13;;;24.00;68.90;;;;;;5067035;28;20201;-78
2022/06/12 13:21:38;;;;;;;6.68;2.92;;;24.00;69.70;;;;;;5069976;28;20550;-77
2022/06/12 13:24:26;;;;;;;8.27;2.70;;;23.80;68.30;;;;;;5070496;28;20198;-78
2022/06/12 13:26:55;;;;;;;4.32;2.38;;;23.60;69.80;;;;;;5072107;28;20229;-77
2022/06/12 13:29:25;;;;;;;5.82;2.72;;;23.30;68.50;;;;;;5078194;28;20218;-78
2022/06/12 13:31:58;;;;;;;5.82;2.60;;;23.20;69.20;;;;;;5071758;28;20190;-78
2022/06/12 13:34:27;;;;;;;3.08;2.17;;;23.60;67.10;;;;;;5066199;28;20687;-78
2022/06/12 13:36:56;;;;;;;5.22;2.08;;;23.40;66.70;;;;;;5069719;28;20260;-78
2022/06/12 13:39:30;;;;;;;4.97;2.65;;;23.50;67.80;;;;;;5079135;28;20194;-78
2022/06/12 13:42:01;;;;;;;5.55;2.65;;;23.50;68.10;;;;;;5071695;28;20208;-78
2022/06/12 13:44:32;;;;;;;6.78;2.55;;;23.50;69.40;;;;;;5090411;28;20662;-78
2022/06/12 13:47:21;;;;;;;5.35;2.58;;;23.80;67.80;;;;;;5068337;28;20228;-78
2022/06/12 13:49:53;;;;;;;9.85;2.97;;;24.20;66.80;;;;;;5092938;28;20564;-78
2022/06/12 13:52:34;;;;;;;7.78;3.00;;;24.40;65.10;;;;;;5080008;28;20198;-77